Time;durP1;ratioP1;P1;durP2;ratioP2;P2;SDS_P1;SDS_P2;PMS_P1;PMS_P2;Temp;Humidity;BMP_temperature;BMP_pressure;BME280_temperature;BME280_humidity;BME280_pressure;Samples;Min_cycle;Max_cycle;Signal;HPM_P1;HPM_P2
2022/03/20 00:00:22;;;;;;;9.63;6.43;;;5.00;99.90;;;;;;4993994;28;20050;-64
2022/03/20 00:02:48;;;;;;;8.80;5.57;;;4.90;99.90;;;;;;4993980;28;20055;-63
2022/03/20 00:05:14;;;;;;;6.93;5.82;;;4.90;99.90;;;;;;4990714;28;20050;-63
2022/03/20 00:07:41;;;;;;;11.45;6.43;;;4.90;99.90;;;;;;4992750;28;20478;-65
2022/03/20 00:10:08;;;;;;;8.27;5.75;;;4.90;99.90;;;;;;4994266;28;20490;-64
2022/03/20 00:12:35;;;;;;;11.18;5.65;;;4.90;99.90;;;;;;4994708;28;20053;-65
2022/03/20 00:15:00;;;;;;;9.10;5.72;;;4.80;99.90;;;;;;4993827;28;20440;-65
2022/03/20 00:17:26;;;;;;;8.52;6.22;;;4.80;99.90;;;;;;4993566;28;20129;-64
2022/03/20 00:19:52;;;;;;;10.27;6.05;;;4.80;99.90;;;;;;4992885;28;20138;-64
2022/03/20 00:22:18;;;;;;;9.30;5.85;;;4.80;99.90;;;;;;4993879;28;20054;-65
2022/03/20 00:24:44;;;;;;;11.50;5.90;;;4.70;99.90;;;;;;4993763;28;20050;-64
2022/03/20 00:27:12;;;;;;;10.40;5.95;;;4.70;99.90;;;;;;5009681;28;20054;-64
2022/03/20 00:29:39;;;;;;;10.93;6.10;;;4.70;99.90;;;;;;5008455;28;20058;-64
2022/03/20 00:32:06;;;;;;;9.15;6.03;;;4.60;99.90;;;;;;4991546;28;20046;-63
2022/03/20 00:34:32;;;;;;;9.20;5.72;;;4.60;99.90;;;;;;4982470;28;20505;-64
2022/03/20 00:36:57;;;;;;;10.10;5.88;;;4.60;99.90;;;;;;4993715;28;20126;-64
2022/03/20 00:39:23;;;;;;;9.70;6.38;;;4.60;99.90;;;;;;4992530;28;20124;-65
2022/03/20 00:41:49;;;;;;;8.90;5.80;;;4.50;99.90;;;;;;4993074;28;20042;-67
2022/03/20 00:44:14;;;;;;;9.18;6.10;;;4.50;99.90;;;;;;4993680;28;20545;-63
2022/03/20 00:46:40;;;;;;;10.75;6.20;;;4.40;99.90;;;;;;4993106;28;20072;-63
2022/03/20 00:49:05;;;;;;;9.40;5.85;;;4.40;99.90;;;;;;4991674;28;20054;-64
2022/03/20 00:51:32;;;;;;;10.65;6.22;;;4.30;99.90;;;;;;4992849;28;20374;-64
2022/03/20 00:53:57;;;;;;;10.40;6.22;;;4.30;99.90;;;;;;4993047;28;20092;-64
2022/03/20 00:56:23;;;;;;;7.75;5.63;;;4.30;99.90;;;;;;4993151;28;20090;-64
2022/03/20 00:58:49;;;;;;;8.80;6.22;;;4.30;99.90;;;;;;4992629;28;20058;-65
2022/03/20 01:01:14;;;;;;;9.80;7.25;;;4.30;99.90;;;;;;4992589;28;20407;-65
2022/03/20 01:03:41;;;;;;;9.40;6.35;;;4.20;99.90;;;;;;4992405;28;20081;-65
2022/03/20 01:06:07;;;;;;;9.77;5.95;;;4.20;99.90;;;;;;4993488;28;20046;-63
2022/03/20 01:08:37;;;;;;;11.00;5.85;;;4.10;99.90;;;;;;4991477;28;20069;-63
2022/03/20 01:11:04;;;;;;;11.63;6.38;;;4.10;99.90;;;;;;4991831;28;20116;-65
2022/03/20 01:13:30;;;;;;;8.45;6.20;;;4.00;99.90;;;;;;4992175;28;20423;-64
2022/03/20 01:15:56;;;;;;;11.18;6.38;;;4.00;99.90;;;;;;4993032;28;20427;-64
2022/03/20 01:18:24;;;;;;;9.15;6.25;;;4.00;99.90;;;;;;5008750;28;20058;-64
2022/03/20 01:20:50;;;;;;;11.85;6.53;;;4.00;99.90;;;;;;4992500;28;20055;-65
2022/03/20 01:23:16;;;;;;;10.38;6.55;;;3.90;99.90;;;;;;4987426;28;20558;-64
2022/03/20 01:25:42;;;;;;;15.13;6.88;;;3.90;99.90;;;;;;4957985;28;20096;-64
2022/03/20 01:28:08;;;;;;;14.82;6.53;;;3.90;99.90;;;;;;4972764;28;20074;-66
2022/03/20 01:30:34;;;;;;;10.05;6.18;;;3.90;99.90;;;;;;4985065;28;20057;-64
2022/03/20 01:32:59;;;;;;;11.02;7.35;;;3.90;99.90;;;;;;5008820;28;20054;-64
2022/03/20 01:35:25;;;;;;;8.60;6.40;;;3.90;99.90;;;;;;4992678;28;20549;-64
2022/03/20 01:37:51;;;;;;;12.88;6.57;;;3.90;99.90;;;;;;4982498;28;20499;-64
2022/03/20 01:40:16;;;;;;;9.43;6.28;;;3.80;99.90;;;;;;4988394;28;20093;-65
2022/03/20 01:42:43;;;;;;;8.00;6.10;;;3.80;99.90;;;;;;4992024;28;20514;-64
2022/03/20 01:45:27;;;;;;;10.40;6.15;;;3.80;99.90;;;;;;4992513;28;20055;-64
2022/03/20 01:47:53;;;;;;;9.32;6.57;;;3.70;99.90;;;;;;4993748;28;20050;-64
2022/03/20 01:50:21;;;;;;;9.18;6.68;;;3.70;99.90;;;;;;4992853;28;20058;-63
2022/03/20 01:52:48;;;;;;;11.60;7.35;;;3.70;99.90;;;;;;4981215;28;20073;-63
2022/03/20 01:55:16;;;;;;;9.45;6.10;;;3.70;99.90;;;;;;4973465;28;20055;-64
2022/03/20 01:57:44;;;;;;;8.80;6.03;;;3.60;99.90;;;;;;4973800;28;20065;-63
2022/03/20 02:00:11;;;;;;;13.45;7.18;;;3.70;99.90;;;;;;4983579;28;20487;-65
2022/03/20 02:02:37;;;;;;;12.48;6.75;;;3.60;99.90;;;;;;4976071;28;20109;-64
2022/03/20 02:05:05;;;;;;;11.73;6.65;;;3.60;99.90;;;;;;4992341;28;20051;-63
2022/03/20 02:07:34;;;;;;;11.80;6.95;;;3.60;99.90;;;;;;4992657;28;20063;-64
2022/03/20 02:10:01;;;;;;;12.50;6.82;;;3.50;99.90;;;;;;5004973;28;20070;-64
2022/03/20 02:12:28;;;;;;;11.55;7.15;;;3.50;99.90;;;;;;4972181;28;20495;-63
2022/03/20 02:14:53;;;;;;;11.18;6.82;;;3.50;99.90;;;;;;4973130;28;20054;-65
2022/03/20 02:17:19;;;;;;;13.43;6.88;;;3.50;99.90;;;;;;4987167;28;20551;-63
2022/03/20 02:19:46;;;;;;;13.15;7.38;;;3.50;99.90;;;;;;4995817;28;20042;-64
2022/03/20 02:22:11;;;;;;;13.88;6.93;;;3.40;99.90;;;;;;4995660;28;20097;-63
2022/03/20 02:24:42;;;;;;;11.50;7.47;;;3.40;99.90;;;;;;4994163;28;20078;-63
2022/03/20 02:27:17;;;;;;;12.60;7.22;;;3.50;99.90;;;;;;4995653;28;20059;-65
2022/03/20 02:29:52;;;;;;;15.10;7.90;;;3.40;99.90;;;;;;4995455;28;20130;-64
2022/03/20 02:32:29;;;;;;;11.00;7.80;;;3.30;99.90;;;;;;5012117;28;20082;-65
2022/03/20 02:34:57;;;;;;;13.95;7.50;;;3.30;99.90;;;;;;4995630;28;20094;-63
2022/03/20 02:37:24;;;;;;;13.13;7.97;;;3.30;99.90;;;;;;5011370;28;20054;-64
2022/03/20 02:39:53;;;;;;;12.07;7.65;;;3.30;99.90;;;;;;4995303;28;20105;-64
2022/03/20 02:42:19;;;;;;;12.82;7.93;;;3.30;99.90;;;;;;5011294;28;20054;-62
2022/03/20 02:45:06;;;;;;;10.52;7.85;;;3.20;99.90;;;;;;5011921;28;20097;-63
2022/03/20 02:47:44;;;;;;;12.93;8.00;;;3.20;99.90;;;;;;4995134;28;20076;-64
2022/03/20 02:50:24;;;;;;;12.40;7.82;;;3.20;99.90;;;;;;4996559;28;20421;-63
2022/03/20 02:52:58;;;;;;;15.13;7.82;;;3.20;99.90;;;;;;4980650;28;20384;-63
2022/03/20 02:55:27;;;;;;;15.75;8.40;;;3.20;99.90;;;;;;4976272;28;20051;-64
2022/03/20 02:57:54;;;;;;;12.07;7.75;;;3.10;99.90;;;;;;4976729;28;20055;-63
2022/03/20 03:00:22;;;;;;;14.80;8.55;;;3.20;99.90;;;;;;4978599;28;20050;-63
2022/03/20 03:02:50;;;;;;;14.43;8.07;;;3.10;99.90;;;;;;4992868;28;20238;-64
2022/03/20 03:05:18;;;;;;;14.45;8.85;;;3.10;99.90;;;;;;4995579;28;20054;-63
2022/03/20 03:13:16;;;;;;;15.95;9.45;;;3.10;99.90;;;;;;4995873;28;20161;-65
2022/03/20 03:15:42;;;;;;;15.82;8.98;;;3.10;99.90;;;;;;4994425;28;20108;-63
2022/03/20 03:18:08;;;;;;;15.88;8.85;;;3.10;99.90;;;;;;4994765;28;20438;-63
2022/03/20 03:20:34;;;;;;;14.98;9.18;;;3.00;99.90;;;;;;4995127;28;20375;-63
2022/03/20 03:23:00;;;;;;;16.83;9.77;;;3.00;99.90;;;;;;4994964;28;20058;-64
2022/03/20 03:25:26;;;;;;;14.48;9.48;;;3.00;99.90;;;;;;5011420;28;20065;-65
2022/03/20 03:27:52;;;;;;;13.43;8.88;;;3.00;99.90;;;;;;4993718;28;20478;-65
2022/03/20 03:30:19;;;;;;;13.25;9.90;;;3.00;99.90;;;;;;5007215;28;20479;-64
2022/03/20 03:32:45;;;;;;;18.95;10.20;;;3.00;99.90;;;;;;4975230;28;20047;-64
2022/03/20 03:37:56;;;;;;;14.73;9.63;;;3.00;99.90;;;;;;4975205;28;20046;-64
2022/03/20 03:40:23;;;;;;;15.05;10.20;;;2.90;99.90;;;;;;4990037;28;20046;-63
2022/03/20 03:42:49;;;;;;;16.10;10.70;;;2.90;99.90;;;;;;5010761;28;20046;-63
2022/03/20 03:45:15;;;;;;;17.52;10.02;;;3.00;99.90;;;;;;5010666;28;20103;-64
2022/03/20 03:47:41;;;;;;;16.35;10.55;;;3.00;99.90;;;;;;4995758;28;20133;-63
2022/03/20 03:50:08;;;;;;;16.80;10.23;;;3.00;99.90;;;;;;5007247;28;20055;-65
2022/03/20 03:52:34;;;;;;;19.67;9.95;;;2.90;99.90;;;;;;4958646;28;20089;-65
2022/03/20 03:54:59;;;;;;;18.55;10.77;;;3.00;99.90;;;;;;4992695;28;20124;-66
2022/03/20 03:57:25;;;;;;;17.75;10.32;;;2.90;99.90;;;;;;4993091;28;20465;-64
2022/03/20 03:59:50;;;;;;;18.92;10.57;;;2.90;99.90;;;;;;4992808;28;20058;-65
2022/03/20 04:02:16;;;;;;;16.00;10.45;;;2.90;99.90;;;;;;4993895;28;20061;-64
2022/03/20 04:04:42;;;;;;;17.92;10.55;;;2.80;99.90;;;;;;4994233;28;20133;-64
2022/03/20 04:07:08;;;;;;;19.02;11.38;;;2.80;99.90;;;;;;5010029;28;20402;-63
2022/03/20 04:09:35;;;;;;;17.15;10.90;;;2.80;99.90;;;;;;4993845;28;20054;-65
2022/03/20 04:12:02;;;;;;;18.88;11.10;;;2.80;99.90;;;;;;4993714;28;20064;-64
2022/03/20 04:14:28;;;;;;;21.17;11.55;;;2.80;99.90;;;;;;5006464;28;20109;-63
2022/03/20 04:16:54;;;;;;;18.50;11.57;;;2.80;99.90;;;;;;4974649;28;20058;-64
2022/03/20 04:19:20;;;;;;;16.52;10.98;;;2.70;99.90;;;;;;4961382;28;20050;-65
2022/03/20 04:21:45;;;;;;;17.73;11.70;;;2.70;99.90;;;;;;4993823;28;20054;-64
2022/03/20 04:24:11;;;;;;;20.77;11.95;;;2.80;99.90;;;;;;4993364;28;20143;-64
2022/03/20 04:26:37;;;;;;;17.00;11.75;;;2.70;99.90;;;;;;4993488;28;20050;-65
2022/03/20 04:29:02;;;;;;;15.77;11.07;;;2.70;99.90;;;;;;4993105;28;20133;-64
2022/03/20 04:31:29;;;;;;;17.90;12.25;;;2.70;99.90;;;;;;4977532;28;20055;-63
2022/03/20 04:33:55;;;;;;;21.15;12.23;;;2.60;99.90;;;;;;4993777;28;20066;-64
2022/03/20 04:36:23;;;;;;;20.20;11.88;;;2.60;99.90;;;;;;4993622;28;20054;-64
2022/03/20 04:38:51;;;;;;;21.08;12.43;;;2.70;99.90;;;;;;4994952;28;20062;-64
2022/03/20 04:41:17;;;;;;;19.15;12.65;;;2.70;99.90;;;;;;4994468;28;20108;-65
2022/03/20 04:43:48;;;;;;;19.30;12.50;;;2.60;99.90;;;;;;5008644;28;20142;-64
2022/03/20 04:46:14;;;;;;;20.33;12.65;;;2.60;99.90;;;;;;4994739;28;20097;-66
2022/03/20 04:59:37;;;;;;;23.60;13.07;;;2.50;99.90;;;;;;4976902;28;20134;-64
2022/03/20 05:02:03;;;;;;;17.02;12.32;;;2.50;99.90;;;;;;4974054;28;20078;-64
2022/03/20 05:04:28;;;;;;;20.65;13.32;;;2.50;99.90;;;;;;4973523;28;20487;-65
2022/03/20 05:06:54;;;;;;;19.30;13.65;;;2.50;99.90;;;;;;4983155;28;20057;-64
2022/03/20 05:14:48;;;;;;;23.70;14.13;;;2.50;99.90;;;;;;4984739;28;20449;-65
2022/03/20 05:17:14;;;;;;;20.83;13.65;;;2.40;99.90;;;;;;4973047;28;20133;-64
2022/03/20 05:19:40;;;;;;;20.67;14.02;;;2.40;99.90;;;;;;4981432;28;20042;-63
2022/03/20 05:22:10;;;;;;;21.25;14.13;;;2.40;99.90;;;;;;4994005;28;20133;-65
2022/03/20 05:24:37;;;;;;;23.10;13.80;;;2.40;99.90;;;;;;4994125;28;20058;-63
2022/03/20 05:27:04;;;;;;;19.27;13.07;;;2.30;99.90;;;;;;4993020;28;20108;-65
2022/03/20 05:29:29;;;;;;;20.23;13.45;;;2.30;99.90;;;;;;4991979;28;20054;-63
2022/03/20 05:31:55;;;;;;;22.30;13.05;;;2.30;99.90;;;;;;4992793;28;20050;-63
2022/03/20 05:34:22;;;;;;;21.95;13.48;;;2.30;99.90;;;;;;4993878;28;20046;-64
2022/03/20 05:36:48;;;;;;;22.70;13.57;;;2.30;99.90;;;;;;5008651;28;20057;-63
2022/03/20 05:39:14;;;;;;;24.83;14.73;;;2.30;99.90;;;;;;4991826;28;20438;-64
2022/03/20 05:41:49;;;;;;;21.92;13.55;;;2.30;99.90;;;;;;4990692;28;20142;-65
2022/03/20 05:44:16;;;;;;;18.02;13.57;;;2.20;99.90;;;;;;4992577;28;20475;-63
2022/03/20 05:46:44;;;;;;;24.88;14.88;;;2.20;99.90;;;;;;4993567;28;20137;-65
2022/03/20 05:49:10;;;;;;;22.70;13.43;;;2.20;99.90;;;;;;4992722;28;20050;-64
2022/03/20 05:51:37;;;;;;;21.55;14.23;;;2.20;99.90;;;;;;4978824;28;20061;-64
2022/03/20 05:54:03;;;;;;;23.38;14.82;;;2.30;99.90;;;;;;4973583;28;20125;-65
2022/03/20 05:59:14;;;;;;;21.73;14.75;;;2.20;99.90;;;;;;4991958;28;20076;-64
2022/03/20 06:01:39;;;;;;;20.45;13.98;;;2.20;99.90;;;;;;4992305;28;20057;-64
2022/03/20 06:04:06;;;;;;;23.40;14.57;;;2.20;99.90;;;;;;4992624;28;20058;-64
2022/03/20 06:06:32;;;;;;;22.73;14.65;;;2.20;99.90;;;;;;4986158;28;20042;-64
2022/03/20 06:08:58;;;;;;;21.73;14.23;;;2.20;99.90;;;;;;4983331;28;20415;-63
2022/03/20 06:11:23;;;;;;;25.13;15.27;;;2.20;99.90;;;;;;4987462;28;20054;-64
2022/03/20 06:13:49;;;;;;;21.15;14.38;;;2.30;99.90;;;;;;4976055;28;20150;-64
2022/03/20 06:16:16;;;;;;;21.85;13.40;;;2.30;99.90;;;;;;4979318;28;20125;-64
2022/03/20 06:18:42;;;;;;;20.08;14.18;;;2.30;99.90;;;;;;4993181;28;20043;-65
2022/03/20 06:21:11;;;;;;;22.25;14.68;;;2.40;99.90;;;;;;4988390;28;20055;-65
2022/03/20 06:23:40;;;;;;;24.30;14.75;;;2.40;99.90;;;;;;4983573;28;20121;-64
2022/03/20 06:26:07;;;;;;;22.58;15.02;;;2.40;99.90;;;;;;4982609;28;20046;-63
2022/03/20 06:28:35;;;;;;;24.92;14.63;;;2.40;99.90;;;;;;4979605;28;20079;-65
2022/03/20 06:31:01;;;;;;;21.60;13.63;;;2.40;99.90;;;;;;4982177;28;20506;-64
2022/03/20 06:33:27;;;;;;;22.75;15.35;;;2.40;99.90;;;;;;4991294;28;20129;-62
2022/03/20 06:35:54;;;;;;;24.05;14.57;;;2.50;99.90;;;;;;4991570;28;20479;-64
2022/03/20 06:38:20;;;;;;;22.00;14.63;;;2.50;99.90;;;;;;4990968;28;20069;-64
2022/03/20 06:40:46;;;;;;;22.88;15.25;;;2.60;99.90;;;;;;4991469;28;20053;-63
2022/03/20 06:43:13;;;;;;;22.88;14.77;;;2.60;99.90;;;;;;5007252;28;20050;-63
2022/03/20 06:45:41;;;;;;;24.23;15.40;;;2.70;99.90;;;;;;4990074;28;20048;-63
2022/03/20 06:48:07;;;;;;;19.83;13.85;;;2.70;99.90;;;;;;4990880;28;20046;-63
2022/03/20 06:50:34;;;;;;;23.85;13.80;;;2.80;99.90;;;;;;4991462;28;20120;-65
2022/03/20 06:53:04;;;;;;;23.67;16.25;;;2.80;99.90;;;;;;4983681;28;20051;-66
2022/03/20 06:55:31;;;;;;;20.45;15.65;;;2.80;99.90;;;;;;4988783;28;20518;-65
2022/03/20 06:57:58;;;;;;;23.30;15.48;;;2.90;99.90;;;;;;4983710;28;20121;-65
2022/03/20 07:00:26;;;;;;;25.08;15.10;;;3.00;99.90;;;;;;4986575;28;20046;-64
2022/03/20 07:02:53;;;;;;;20.63;14.57;;;3.00;99.90;;;;;;4989048;28;20047;-63
2022/03/20 07:05:19;;;;;;;28.10;15.95;;;3.10;99.90;;;;;;4987134;28;20050;-65
2022/03/20 07:07:45;;;;;;;27.00;17.52;;;3.10;99.90;;;;;;4994622;28;20046;-63
2022/03/20 07:10:14;;;;;;;20.83;14.55;;;3.20;99.90;;;;;;4991560;28;20424;-63
2022/03/20 07:12:39;;;;;;;24.10;15.70;;;3.30;99.90;;;;;;4991707;28;20402;-64
2022/03/20 07:15:05;;;;;;;25.70;16.10;;;3.40;99.90;;;;;;4986173;28;20050;-63
2022/03/20 07:17:33;;;;;;;22.90;14.43;;;3.50;99.90;;;;;;4982630;28;20491;-63
2022/03/20 07:20:00;;;;;;;21.13;14.48;;;3.50;99.90;;;;;;4980617;28;20058;-63
2022/03/20 07:22:26;;;;;;;24.98;15.63;;;3.60;99.90;;;;;;4993772;28;20062;-64
2022/03/20 07:24:52;;;;;;;26.33;16.25;;;3.60;99.90;;;;;;4994031;28;20042;-64
2022/03/20 07:30:03;;;;;;;23.92;15.43;;;3.60;99.90;;;;;;4993893;28;20062;-63
2022/03/20 07:32:28;;;;;;;22.95;15.05;;;3.70;99.90;;;;;;4990685;28;20054;-63
2022/03/20 07:34:54;;;;;;;24.98;16.10;;;3.70;99.90;;;;;;4990435;28;20105;-65
2022/03/20 07:37:21;;;;;;;22.10;15.32;;;3.80;99.90;;;;;;4989471;28;20055;-63
2022/03/20 07:39:49;;;;;;;21.40;15.15;;;3.80;99.90;;;;;;4995222;28;20141;-64
2022/03/20 07:42:18;;;;;;;22.75;15.57;;;3.90;99.90;;;;;;5009277;28;20057;-64
2022/03/20 07:44:44;;;;;;;22.33;15.15;;;3.80;99.90;;;;;;4984242;28;20098;-64
2022/03/20 07:47:17;;;;;;;24.98;15.95;;;3.90;99.90;;;;;;4977741;28;20074;-63
2022/03/20 07:49:43;;;;;;;22.05;15.52;;;3.90;99.90;;;;;;4990270;28;20046;-63
2022/03/20 07:52:09;;;;;;;22.60;15.50;;;4.00;99.90;;;;;;5010511;28;20058;-63
2022/03/20 07:54:36;;;;;;;23.33;15.63;;;4.00;99.90;;;;;;4993903;28;20153;-64
2022/03/20 07:57:03;;;;;;;22.77;15.98;;;4.10;99.90;;;;;;5009626;28;20046;-64
2022/03/20 07:59:28;;;;;;;24.20;16.00;;;4.20;99.90;;;;;;4991162;28;20261;-66
2022/03/20 08:01:54;;;;;;;23.88;15.13;;;4.20;99.90;;;;;;4988553;28;20145;-64
2022/03/20 08:04:20;;;;;;;24.10;16.63;;;4.30;99.90;;;;;;4982696;28;20065;-64
2022/03/20 08:06:46;;;;;;;25.48;16.27;;;4.50;99.90;;;;;;4985213;28;20038;-64
2022/03/20 08:09:11;;;;;;;23.13;16.60;;;4.60;99.90;;;;;;4992971;28;20557;-65
2022/03/20 08:11:37;;;;;;;24.67;16.58;;;4.80;99.90;;;;;;4994181;28;20054;-63
2022/03/20 08:14:07;;;;;;;21.88;15.70;;;4.90;99.90;;;;;;4979869;28;20069;-64
2022/03/20 08:16:35;;;;;;;25.77;16.17;;;5.10;99.90;;;;;;4984500;28;20050;-64
2022/03/20 08:19:00;;;;;;;24.77;16.50;;;5.20;99.90;;;;;;4984424;28;20085;-66
2022/03/20 08:21:26;;;;;;;23.00;17.20;;;5.10;99.90;;;;;;4992011;28;20081;-65
2022/03/20 08:23:51;;;;;;;24.63;15.82;;;5.30;99.90;;;;;;4993217;28;20079;-64
2022/03/20 08:26:17;;;;;;;22.30;16.60;;;5.30;99.90;;;;;;4993966;28;20054;-63
2022/03/20 08:28:44;;;;;;;22.88;16.63;;;5.40;99.90;;;;;;4992730;28;20487;-65
2022/03/20 08:31:10;;;;;;;24.25;17.52;;;5.50;99.90;;;;;;4994131;28;20363;-63
2022/03/20 08:33:36;;;;;;;22.85;16.77;;;5.60;99.90;;;;;;4977329;28;20074;-64
2022/03/20 08:36:04;;;;;;;28.70;17.42;;;5.70;99.90;;;;;;4979386;28;20062;-65
2022/03/20 08:38:29;;;;;;;33.08;18.10;;;5.60;99.90;;;;;;4985362;28;20054;-63
2022/03/20 08:40:55;;;;;;;24.60;17.77;;;5.70;99.90;;;;;;4982003;28;20039;-64
2022/03/20 08:43:22;;;;;;;26.45;18.42;;;5.90;99.90;;;;;;4981405;28;20043;-63
2022/03/20 08:45:49;;;;;;;28.58;18.63;;;6.00;99.90;;;;;;4979241;28;20122;-65
2022/03/20 08:48:15;;;;;;;30.70;18.70;;;6.20;99.90;;;;;;4977891;28;20043;-64
2022/03/20 08:50:44;;;;;;;27.30;19.20;;;6.30;99.90;;;;;;4982657;28;20180;-64
2022/03/20 08:53:10;;;;;;;21.85;17.85;;;6.50;99.90;;;;;;5006331;28;20050;-64
2022/03/20 08:55:36;;;;;;;27.98;18.83;;;6.40;99.90;;;;;;4977953;28;20129;-64
2022/03/20 08:58:04;;;;;;;28.02;17.77;;;6.50;99.90;;;;;;4979625;28;20539;-64
2022/03/20 09:00:32;;;;;;;28.67;19.02;;;6.50;99.40;;;;;;4983160;28;20042;-64
2022/03/20 09:02:57;;;;;;;25.42;18.05;;;6.60;99.90;;;;;;4982676;28;20054;-65
2022/03/20 09:05:23;;;;;;;28.60;19.30;;;6.60;96.20;;;;;;4982540;28;20054;-66
2022/03/20 09:07:50;;;;;;;25.30;18.75;;;6.70;94.80;;;;;;4975830;28;20047;-63
2022/03/20 09:10:16;;;;;;;27.05;19.42;;;6.70;94.10;;;;;;4973634;28;20058;-63
2022/03/20 09:12:43;;;;;;;28.23;20.17;;;6.90;93.00;;;;;;4974494;28;20062;-64
2022/03/20 09:15:12;;;;;;;26.33;18.75;;;6.80;90.80;;;;;;4973315;28;20126;-64
2022/03/20 09:20:26;;;;;;;25.90;20.25;;;6.90;87.00;;;;;;4992758;28;20054;-64
2022/03/20 09:22:52;;;;;;;26.80;18.55;;;7.10;82.80;;;;;;4992294;28;20510;-64
2022/03/20 09:25:18;;;;;;;26.55;18.60;;;7.20;83.40;;;;;;4965018;28;20046;-64
2022/03/20 09:27:43;;;;;;;27.98;21.60;;;7.30;81.40;;;;;;4982167;28;20065;-64
2022/03/20 09:30:10;;;;;;;30.23;19.50;;;7.30;73.90;;;;;;4991147;28;20050;-63
2022/03/20 09:32:36;;;;;;;27.30;17.75;;;7.40;73.60;;;;;;4992996;28;20445;-65
2022/03/20 09:35:01;;;;;;;26.52;19.33;;;7.50;74.60;;;;;;4986620;28;20050;-64
2022/03/20 09:37:27;;;;;;;29.48;19.98;;;7.90;70.80;;;;;;4982782;28;20047;-66
2022/03/20 09:39:53;;;;;;;26.73;19.88;;;7.60;71.30;;;;;;4983708;28;20054;-64
2022/03/20 09:42:19;;;;;;;25.63;20.13;;;7.70;70.90;;;;;;4991426;28;20054;-64
2022/03/20 09:44:45;;;;;;;28.58;19.73;;;7.70;69.40;;;;;;4992640;28;20065;-63
2022/03/20 09:47:12;;;;;;;28.55;19.70;;;7.70;68.50;;;;;;4992114;28;20061;-64
2022/03/20 09:49:38;;;;;;;27.73;18.98;;;7.80;67.50;;;;;;4988586;28;20122;-66
2022/03/20 09:52:06;;;;;;;28.25;20.35;;;7.90;67.00;;;;;;4975077;28;20543;-66
2022/03/20 09:54:32;;;;;;;28.13;19.63;;;7.90;66.90;;;;;;4982273;28;20105;-65
2022/03/20 09:57:03;;;;;;;27.75;19.65;;;7.90;67.40;;;;;;4980684;28;20066;-66
2022/03/20 09:59:28;;;;;;;29.60;20.77;;;8.00;65.90;;;;;;4983397;28;20133;-66
2022/03/20 10:01:54;;;;;;;25.67;19.23;;;8.00;66.60;;;;;;4980935;28;20117;-65
2022/03/20 10:04:19;;;;;;;29.75;20.92;;;8.10;66.10;;;;;;4982338;28;20113;-66
2022/03/20 10:06:45;;;;;;;28.13;20.90;;;8.20;65.30;;;;;;4980739;28;20105;-66
2022/03/20 10:09:12;;;;;;;29.75;21.65;;;8.20;64.70;;;;;;4983028;28;20049;-65
2022/03/20 10:11:50;;;;;;;43.92;22.17;;;8.30;64.60;;;;;;4981959;28;20081;-66
2022/03/20 10:14:18;;;;;;;28.70;20.58;;;8.30;63.60;;;;;;4991609;28;20141;-65
2022/03/20 10:16:50;;;;;;;33.40;20.90;;;8.40;63.70;;;;;;4992418;28;20384;-67
2022/03/20 10:19:25;;;;;;;29.48;21.60;;;8.40;63.80;;;;;;4987190;28;20062;-64
2022/03/20 10:21:53;;;;;;;29.33;19.95;;;8.60;63.90;;;;;;4982359;28;20046;-67
2022/03/20 10:24:22;;;;;;;29.08;21.70;;;8.70;63.70;;;;;;4988500;28;20541;-65
2022/03/20 10:26:53;;;;;;;28.88;21.23;;;8.80;63.30;;;;;;4992173;28;20050;-66
2022/03/20 10:29:19;;;;;;;30.35;21.13;;;8.90;63.00;;;;;;4988896;28;20050;-65
2022/03/20 10:31:52;;;;;;;29.30;22.08;;;8.90;62.20;;;;;;4986187;28;20402;-65
2022/03/20 10:34:19;;;;;;;28.45;20.77;;;9.00;61.80;;;;;;4982751;28;20129;-66
2022/03/20 10:36:48;;;;;;;26.88;20.95;;;9.00;62.00;;;;;;4981552;28;20057;-65
2022/03/20 10:39:16;;;;;;;28.35;20.20;;;9.10;62.00;;;;;;4984731;28;20097;-66
2022/03/20 10:41:45;;;;;;;29.48;22.17;;;9.10;61.50;;;;;;4984324;28;20058;-64
2022/03/20 10:44:18;;;;;;;32.80;21.40;;;9.20;61.20;;;;;;4987003;28;20074;-67
2022/03/20 10:47:04;;;;;;;29.25;21.05;;;9.20;60.50;;;;;;4995767;28;20093;-65
2022/03/20 10:49:32;;;;;;;30.20;20.55;;;9.10;59.40;;;;;;4995582;28;20062;-64
2022/03/20 10:52:13;;;;;;;25.60;17.42;;;9.10;60.50;;;;;;4990499;28;20057;-66
2022/03/20 10:54:43;;;;;;;33.83;20.70;;;9.20;59.80;;;;;;4986067;28;20105;-65
2022/03/20 10:57:11;;;;;;;30.92;22.35;;;9.30;60.70;;;;;;4987248;28;20050;-66
2022/03/20 10:59:38;;;;;;;28.35;21.35;;;9.40;60.20;;;;;;5011557;28;20042;-64
2022/03/20 11:02:05;;;;;;;30.77;21.05;;;9.40;59.80;;;;;;4995610;28;20068;-65
2022/03/20 11:04:32;;;;;;;31.45;20.77;;;9.50;60.30;;;;;;4996493;28;20046;-64
2022/03/20 11:07:00;;;;;;;28.00;20.05;;;9.50;60.40;;;;;;4987561;28;20062;-65
2022/03/20 11:09:26;;;;;;;28.92;20.83;;;9.70;60.70;;;;;;4985637;28;20097;-65
2022/03/20 11:11:56;;;;;;;27.55;20.95;;;9.90;60.40;;;;;;4985208;28;20065;-66
2022/03/20 11:14:24;;;;;;;28.08;21.13;;;10.00;59.70;;;;;;4986079;28;20104;-63
2022/03/20 11:16:52;;;;;;;28.52;21.35;;;10.00;59.20;;;;;;4987214;28;20054;-66
2022/03/20 11:19:25;;;;;;;32.35;22.35;;;10.00;58.60;;;;;;4994006;28;20059;-65
2022/03/20 11:21:53;;;;;;;31.67;22.05;;;10.00;58.50;;;;;;4987907;28;20510;-65
2022/03/20 11:24:20;;;;;;;31.45;22.70;;;10.10;58.00;;;;;;4995391;28;20061;-65
2022/03/20 11:26:50;;;;;;;29.38;21.33;;;10.10;58.00;;;;;;4987964;28;20054;-65
2022/03/20 11:29:18;;;;;;;31.35;22.05;;;10.20;57.90;;;;;;4990600;28;20482;-65
2022/03/20 11:31:44;;;;;;;28.67;21.92;;;10.20;58.00;;;;;;4961426;28;20089;-64
2022/03/20 11:34:12;;;;;;;32.22;21.88;;;10.30;58.10;;;;;;4988998;28;20509;-66
2022/03/20 11:37:03;;;;;;;28.92;20.25;;;10.30;57.50;;;;;;4990905;28;20597;-67
2022/03/20 11:39:30;;;;;;;30.23;22.55;;;10.30;57.30;;;;;;5009943;28;20534;-65
2022/03/20 11:42:21;;;;;;;28.85;21.65;;;10.30;57.80;;;;;;4984600;28;20046;-65
2022/03/20 11:45:16;;;;;;;28.30;21.20;;;10.40;57.30;;;;;;4994136;28;20054;-65
2022/03/20 11:47:43;;;;;;;27.50;20.67;;;10.50;56.70;;;;;;4994115;28;20474;-66
2022/03/20 11:50:24;;;;;;;31.63;23.17;;;10.60;58.20;;;;;;4994069;28;20050;-66
2022/03/20 11:52:58;;;;;;;28.30;21.15;;;10.70;57.30;;;;;;4994459;28;20388;-65
2022/03/20 11:55:34;;;;;;;26.48;20.88;;;10.80;57.10;;;;;;4994497;28;20061;-67
2022/03/20 11:58:08;;;;;;;29.67;21.35;;;10.80;56.60;;;;;;4992633;28;20046;-65
2022/03/20 12:00:36;;;;;;;28.23;22.25;;;10.80;56.90;;;;;;4988255;28;20050;-65
2022/03/20 12:03:02;;;;;;;29.25;21.73;;;10.90;57.00;;;;;;4994185;28;20097;-65
2022/03/20 12:05:42;;;;;;;28.75;21.95;;;10.90;57.20;;;;;;4994483;28;20047;-68
2022/03/20 12:08:29;;;;;;;30.95;23.40;;;11.00;56.50;;;;;;4994175;28;20121;-65
2022/03/20 12:11:24;;;;;;;29.83;21.15;;;11.20;57.40;;;;;;4994058;28;20521;-64
2022/03/20 12:14:24;;;;;;;28.30;22.13;;;11.20;56.50;;;;;;4993095;28;20054;-65
2022/03/20 12:16:52;;;;;;;33.08;21.95;;;11.20;55.30;;;;;;4990621;28;20137;-65
2022/03/20 12:19:24;;;;;;;29.25;21.67;;;11.10;55.70;;;;;;4984996;28;20082;-68
2022/03/20 12:22:18;;;;;;;30.95;22.35;;;11.10;56.10;;;;;;5000324;28;20056;-65
2022/03/20 12:24:53;;;;;;;28.92;21.08;;;11.10;56.50;;;;;;5006090;28;20514;-67
2022/03/20 12:27:18;;;;;;;28.83;22.05;;;11.10;56.70;;;;;;4981490;28;20046;-66
2022/03/20 12:29:45;;;;;;;28.20;22.60;;;11.00;56.80;;;;;;4985429;28;20056;-65
2022/03/20 12:32:12;;;;;;;31.50;22.98;;;11.00;57.20;;;;;;4985389;28;20054;-66
2022/03/20 12:34:39;;;;;;;37.70;22.58;;;11.00;57.30;;;;;;4985828;28;20446;-67
2022/03/20 12:37:30;;;;;;;30.63;23.40;;;11.00;56.60;;;;;;4991920;28;20054;-66
2022/03/20 12:40:15;;;;;;;30.83;22.20;;;11.00;56.50;;;;;;4994423;28;20123;-66
2022/03/20 12:42:43;;;;;;;30.60;23.73;;;11.00;55.90;;;;;;4986692;28;20046;-66
2022/03/20 12:45:15;;;;;;;29.75;22.55;;;10.90;55.90;;;;;;4975756;28;20138;-66
2022/03/20 12:47:59;;;;;;;31.73;22.17;;;10.90;56.50;;;;;;4973867;28;20070;-68
2022/03/20 12:50:30;;;;;;;31.10;22.67;;;11.00;56.30;;;;;;4984342;28;20475;-66
2022/03/20 12:53:17;;;;;;;32.42;22.33;;;11.10;56.70;;;;;;4994658;28;20117;-66
2022/03/20 12:55:54;;;;;;;30.30;23.35;;;11.10;56.90;;;;;;4993214;28;20058;-66
2022/03/20 12:58:19;;;;;;;32.92;22.50;;;11.20;56.70;;;;;;5005023;28;20113;-67
2022/03/20 13:00:45;;;;;;;30.50;22.95;;;11.20;57.10;;;;;;4982147;28;20055;-66
2022/03/20 13:03:13;;;;;;;32.28;22.75;;;11.20;56.80;;;;;;4992953;28;20475;-66
2022/03/20 13:05:49;;;;;;;28.83;22.67;;;11.20;56.90;;;;;;4994396;28;20077;-67
2022/03/20 13:08:23;;;;;;;37.72;23.65;;;11.10;56.50;;;;;;4993291;28;20064;-68
2022/03/20 13:10:50;;;;;;;31.10;23.25;;;11.00;56.50;;;;;;5008812;28;20596;-67
2022/03/20 13:13:20;;;;;;;30.55;23.10;;;10.90;56.70;;;;;;4981306;28;20058;-66
2022/03/20 13:15:49;;;;;;;32.45;23.17;;;10.80;57.30;;;;;;5000446;28;20046;-67